createdAt,value
2023-05-10T00:02:22.868Z,0.40
2023-05-10T00:04:51.002Z,0.30
2023-05-10T00:07:18.782Z,0.50
2023-05-10T00:09:46.646Z,0.30
2023-05-10T00:12:15.059Z,0.40
2023-05-10T00:14:44.876Z,0.30
2023-05-10T00:17:13.075Z,0.40
2023-05-10T00:19:40.853Z,0.32
2023-05-10T00:22:09.265Z,0.32
2023-05-10T00:24:36.532Z,0.40
2023-05-10T00:27:05.227Z,0.30
2023-05-10T00:29:34.342Z,0.35
2023-05-10T00:32:02.561Z,0.40
2023-05-10T00:34:32.106Z,0.40
2023-05-10T00:37:00.200Z,0.40
2023-05-10T00:39:30.165Z,0.40
2023-05-10T00:42:01.812Z,0.40
2023-05-10T00:44:30.544Z,0.40
2023-05-10T00:46:59.283Z,0.40
2023-05-10T00:49:29.893Z,0.57
2023-05-10T00:51:57.818Z,0.47
2023-05-10T00:54:25.068Z,0.40
2023-05-10T00:56:53.300Z,0.45
2023-05-10T00:59:22.334Z,0.47
2023-05-10T01:01:50.355Z,0.40
2023-05-10T01:04:17.686Z,0.50
2023-05-10T01:06:48.626Z,0.45
2023-05-10T01:09:15.618Z,0.43
2023-05-10T01:11:43.344Z,0.40
2023-05-10T01:14:13.199Z,0.50
2023-05-10T01:16:46.807Z,0.35
2023-05-10T01:19:38.457Z,0.30
2023-05-10T01:22:07.974Z,0.50
2023-05-10T01:25:13.568Z,0.30
2023-05-10T01:28:22.249Z,0.40
2023-05-10T01:31:37.808Z,0.40
2023-05-10T01:34:20.593Z,0.60
2023-05-10T01:36:56.681Z,0.50
2023-05-10T01:39:47.108Z,0.60
2023-05-10T01:42:26.882Z,0.40
2023-05-10T01:45:11.867Z,0.50
2023-05-10T01:47:59.083Z,0.40
2023-05-10T01:50:31.220Z,0.45
2023-05-10T01:53:02.393Z,0.40
2023-05-10T01:55:35.174Z,0.32
2023-05-10T01:58:16.355Z,0.40
2023-05-10T02:00:48.252Z,0.50
2023-05-10T02:03:22.465Z,0.40
2023-05-10T02:05:53.502Z,0.50
2023-05-10T02:08:23.459Z,0.40
2023-05-10T02:10:54.668Z,0.47
2023-05-10T02:13:26.125Z,0.38
2023-05-10T02:15:56.845Z,0.40
2023-05-10T02:18:26.798Z,0.40
2023-05-10T02:20:56.337Z,0.40
2023-05-10T02:23:25.942Z,0.40
2023-05-10T02:25:57.101Z,0.38
2023-05-10T02:28:27.124Z,0.50
2023-05-10T02:30:55.632Z,0.50
2023-05-10T02:33:29.122Z,0.40
2023-05-10T02:35:57.558Z,0.50
2023-05-10T02:38:30.600Z,0.40
2023-05-10T02:40:59.376Z,0.50
2023-05-10T02:43:29.484Z,0.40
2023-05-10T02:45:59.751Z,0.40
2023-05-10T02:48:27.378Z,0.40
2023-05-10T02:51:01.558Z,0.50
2023-05-10T02:53:41.996Z,0.45
2023-05-10T02:56:35.739Z,0.50
2023-05-10T02:59:03.678Z,0.40
2023-05-10T03:01:31.264Z,0.47
2023-05-10T03:03:58.303Z,0.38
2023-05-10T03:06:26.180Z,0.30
2023-05-10T03:08:54.016Z,0.50
2023-05-10T03:11:51.989Z,0.40
2023-05-10T03:15:04.709Z,0.32
2023-05-10T03:17:49.097Z,0.40
2023-05-10T03:20:32.983Z,0.60
2023-05-10T03:23:37.423Z,0.50
2023-05-10T03:26:07.485Z,0.50
2023-05-10T03:28:39.746Z,0.45
2023-05-10T03:31:08.077Z,0.40
2023-05-10T03:33:46.922Z,0.50
2023-05-10T03:36:15.067Z,0.60
2023-05-10T03:38:42.454Z,0.50
2023-05-10T03:41:09.583Z,0.50
2023-05-10T03:43:36.752Z,0.50
2023-05-10T03:46:08.472Z,0.40
2023-05-10T03:48:35.824Z,0.50
2023-05-10T03:51:06.471Z,0.40
2023-05-10T03:53:34.523Z,0.45
2023-05-10T03:56:02.775Z,0.50
2023-05-10T03:58:33.074Z,0.40
2023-05-10T04:01:00.817Z,0.55
2023-05-10T04:03:31.619Z,0.47
2023-05-10T04:06:05.209Z,0.50
2023-05-10T04:08:33.139Z,0.50
2023-05-10T04:11:12.685Z,0.50
2023-05-10T04:13:47.800Z,0.40
2023-05-10T04:16:15.488Z,0.60
2023-05-10T04:18:42.668Z,0.40
2023-05-10T04:21:17.643Z,0.40
2023-05-10T04:23:46.743Z,0.52
2023-05-10T04:26:15.340Z,0.50
2023-05-10T04:28:43.444Z,0.45
2023-05-10T04:31:11.465Z,0.50
2023-05-10T04:33:43.532Z,0.50
2023-05-10T04:36:12.322Z,0.50
2023-05-10T04:38:40.127Z,0.50
2023-05-10T04:41:15.284Z,0.65
2023-05-10T04:43:42.905Z,0.30
2023-05-10T04:46:13.530Z,0.50
2023-05-10T04:48:41.176Z,0.45
2023-05-10T04:51:09.313Z,0.50
2023-05-10T04:53:37.137Z,0.60
2023-05-10T04:56:05.624Z,0.50
2023-05-10T04:58:40.107Z,0.68
2023-05-10T05:01:11.808Z,0.68
2023-05-10T05:03:39.951Z,0.70
2023-05-10T05:06:07.966Z,0.60
2023-05-10T05:08:35.918Z,0.50
2023-05-10T05:11:06.121Z,0.50
2023-05-10T05:13:36.652Z,0.60
2023-05-10T05:16:04.595Z,0.50
2023-05-10T05:18:35.390Z,0.60
2023-05-10T05:21:02.945Z,0.77
2023-05-10T05:23:31.400Z,0.60
2023-05-10T05:25:59.049Z,0.60
2023-05-10T05:28:26.831Z,0.70
2023-05-10T05:30:56.906Z,0.70
2023-05-10T05:33:26.854Z,0.60
2023-05-10T05:35:54.657Z,0.70
2023-05-10T05:38:28.450Z,0.70
2023-05-10T05:40:55.503Z,0.70
2023-05-10T05:43:23.341Z,0.90
2023-05-10T05:45:51.486Z,0.80
2023-05-10T05:48:19.210Z,0.60
2023-05-10T05:50:47.203Z,0.77
2023-05-10T05:53:14.944Z,0.65
2023-05-10T05:55:56.687Z,0.70
2023-05-10T05:58:25.008Z,0.90
2023-05-10T06:00:53.645Z,0.88
2023-05-10T06:03:22.721Z,0.82
2023-05-10T06:05:50.641Z,1.00
2023-05-10T06:08:18.253Z,0.95
2023-05-10T06:10:46.341Z,1.15
2023-05-10T06:13:17.586Z,1.23
2023-05-10T06:15:45.367Z,1.20
2023-05-10T06:18:13.011Z,1.33
2023-05-10T06:20:43.209Z,1.33
2023-05-10T06:23:10.780Z,1.20
2023-05-10T06:25:43.764Z,1.58
2023-05-10T06:28:11.450Z,1.40
2023-05-10T06:30:39.469Z,1.60
2023-05-10T06:33:06.993Z,1.55
2023-05-10T06:35:35.183Z,1.38
2023-05-10T06:38:03.043Z,1.80
2023-05-10T06:40:30.815Z,1.65
2023-05-10T06:42:58.255Z,1.63
2023-05-10T06:45:25.646Z,1.80
2023-05-10T06:47:52.732Z,1.98
2023-05-10T06:50:23.306Z,2.10
2023-05-10T06:52:53.097Z,2.10
2023-05-10T06:55:21.149Z,2.00
2023-05-10T06:57:48.934Z,2.20
2023-05-10T07:00:21.334Z,2.00
2023-05-10T07:02:51.936Z,2.33
2023-05-10T07:05:23.574Z,2.30
2023-05-10T07:07:50.917Z,2.70
2023-05-10T07:10:18.838Z,2.28
2023-05-10T07:12:46.132Z,2.50
2023-05-10T07:15:16.578Z,2.45
2023-05-10T07:17:45.806Z,2.45
2023-05-10T07:20:14.025Z,2.28
2023-05-10T07:22:41.810Z,2.22
2023-05-10T07:25:09.696Z,2.58
2023-05-10T07:27:36.934Z,2.90
2023-05-10T07:30:04.518Z,2.50
2023-05-10T07:32:31.791Z,2.90
2023-05-10T07:34:58.900Z,2.63
2023-05-10T07:37:26.256Z,2.97
2023-05-10T07:39:55.126Z,2.78
2023-05-10T07:42:22.124Z,2.83
2023-05-10T07:44:49.443Z,2.67
2023-05-10T07:47:17.008Z,2.72
2023-05-10T07:49:44.817Z,2.72
2023-05-10T07:52:12.307Z,3.03
2023-05-10T07:54:40.194Z,2.70
2023-05-10T07:57:12.053Z,2.95
2023-05-10T07:59:51.181Z,3.17
2023-05-10T08:02:19.035Z,2.85
2023-05-10T08:04:47.218Z,3.00
2023-05-10T08:07:17.129Z,3.08
2023-05-10T08:09:45.109Z,2.80
2023-05-10T08:12:12.749Z,3.30
2023-05-10T08:14:39.884Z,3.28
2023-05-10T08:17:06.874Z,3.22
2023-05-10T08:19:34.112Z,2.83
2023-05-10T08:22:01.528Z,3.20
2023-05-10T08:24:29.021Z,3.28
2023-05-10T08:26:56.081Z,2.95
2023-05-10T08:29:23.264Z,2.88
2023-05-10T08:31:50.556Z,3.25
2023-05-10T08:34:17.709Z,2.60
2023-05-10T08:36:44.758Z,3.20
2023-05-10T08:39:22.937Z,3.00
2023-05-10T08:42:03.466Z,3.50
2023-05-10T08:44:37.561Z,2.90
2023-05-10T08:47:08.186Z,2.70
2023-05-10T08:49:35.792Z,3.08
2023-05-10T08:52:09.171Z,3.35
2023-05-10T08:54:37.524Z,3.15
2023-05-10T08:57:04.855Z,3.33
2023-05-10T08:59:32.910Z,3.28
2023-05-10T09:02:00.777Z,3.58
2023-05-10T09:04:29.120Z,3.22
2023-05-10T09:06:56.420Z,3.80
2023-05-10T09:09:26.173Z,3.70
2023-05-10T09:11:54.264Z,3.40
2023-05-10T09:14:21.786Z,3.90
2023-05-10T09:16:49.101Z,3.35
2023-05-10T09:19:16.496Z,3.25
2023-05-10T09:21:47.993Z,3.35
2023-05-10T09:24:16.224Z,4.00
2023-05-10T09:26:50.340Z,3.17
2023-05-10T09:29:18.206Z,4.45
2023-05-10T09:31:55.650Z,3.80
2023-05-10T09:34:33.699Z,3.75
2023-05-10T09:37:03.912Z,3.60
2023-05-10T09:39:35.648Z,3.78
2023-05-10T09:42:20.740Z,3.67
2023-05-10T09:44:48.962Z,3.65
2023-05-10T09:47:23.024Z,3.45
2023-05-10T09:49:55.575Z,3.63
2023-05-10T09:52:22.807Z,3.58
2023-05-10T09:54:56.602Z,3.55
2023-05-10T09:57:26.917Z,3.35
2023-05-10T10:00:02.511Z,3.53
2023-05-10T10:02:30.437Z,3.70
2023-05-10T10:04:57.814Z,3.35
2023-05-10T10:07:29.217Z,3.47
2023-05-10T10:09:57.677Z,3.65
2023-05-10T10:12:24.983Z,3.47
2023-05-10T10:14:52.697Z,3.53
2023-05-10T10:17:22.343Z,3.30
2023-05-10T10:19:50.536Z,3.15
2023-05-10T10:22:18.743Z,3.30
2023-05-10T10:24:46.658Z,3.13
2023-05-10T10:27:54.209Z,3.03
2023-05-10T10:30:46.978Z,2.80
2023-05-10T10:33:50.211Z,2.85
2023-05-10T10:36:17.892Z,3.15
2023-05-10T10:38:47.601Z,3.28
2023-05-10T10:41:37.129Z,3.25
2023-05-10T10:44:47.623Z,3.00
2023-05-10T10:47:24.128Z,3.08
2023-05-10T10:50:03.266Z,3.38
2023-05-10T10:52:44.365Z,2.90
2023-05-10T10:55:26.018Z,3.30
2023-05-10T10:58:01.541Z,2.97
2023-05-10T11:00:38.226Z,2.60
2023-05-10T11:03:15.940Z,3.08
2023-05-10T11:05:48.411Z,2.42
2023-05-10T11:08:28.728Z,2.85
2023-05-10T11:11:02.045Z,2.60
2023-05-10T11:13:41.159Z,2.53
2023-05-10T11:16:24.809Z,3.03
2023-05-10T11:19:06.295Z,2.83
2023-05-10T11:21:36.239Z,3.13
2023-05-10T11:24:14.112Z,3.20
2023-05-10T11:26:41.667Z,2.70
2023-05-10T11:29:09.091Z,2.80
2023-05-10T11:31:45.628Z,2.83
2023-05-10T11:34:13.837Z,2.63
2023-05-10T11:36:40.899Z,2.63
2023-05-10T11:39:08.692Z,2.80
2023-05-10T11:41:35.851Z,2.65
2023-05-10T11:44:03.614Z,2.45
2023-05-10T11:46:30.892Z,2.08
2023-05-10T11:49:05.720Z,2.47
2023-05-10T11:51:37.273Z,2.25
2023-05-10T11:54:12.327Z,2.60
2023-05-10T11:56:41.831Z,2.47
2023-05-10T11:59:10.277Z,2.58
2023-05-10T12:01:38.009Z,2.00
2023-05-10T12:04:05.689Z,2.20
2023-05-10T12:06:41.453Z,2.15
2023-05-10T12:09:09.692Z,2.38
2023-05-10T12:11:44.252Z,2.60
2023-05-10T12:14:12.377Z,2.00
2023-05-10T12:16:39.795Z,1.70
2023-05-10T12:19:06.947Z,1.95
2023-05-10T12:21:34.869Z,2.05
2023-05-10T12:24:05.072Z,2.00
2023-05-10T12:26:33.286Z,2.10
2023-05-10T12:29:21.694Z,1.83
2023-05-10T12:31:55.420Z,1.80
2023-05-10T12:34:36.024Z,2.20
2023-05-10T12:37:04.581Z,1.80
2023-05-10T12:39:47.295Z,2.00
2023-05-10T12:42:14.540Z,1.50
2023-05-10T12:44:41.656Z,1.60
2023-05-10T12:47:09.044Z,1.65
2023-05-10T12:49:36.861Z,1.70
2023-05-10T12:52:04.255Z,1.55
2023-05-10T12:54:31.683Z,1.60
2023-05-10T12:56:58.878Z,1.90
2023-05-10T12:59:26.088Z,1.80
2023-05-10T13:01:53.497Z,1.90
2023-05-10T13:04:20.657Z,1.67
2023-05-10T13:06:48.244Z,1.55
2023-05-10T13:09:16.155Z,1.63
2023-05-10T13:11:43.492Z,1.23
2023-05-10T13:14:10.927Z,1.60
2023-05-10T13:16:38.368Z,1.42
2023-05-10T13:19:05.948Z,1.40
2023-05-10T13:21:33.219Z,1.40
2023-05-10T13:24:03.248Z,1.20
2023-05-10T13:26:30.707Z,1.15
2023-05-10T13:28:57.722Z,1.30
2023-05-10T13:31:25.392Z,1.27
2023-05-10T13:33:52.807Z,1.27
2023-05-10T13:36:20.580Z,1.40
2023-05-10T13:38:47.893Z,1.30
2023-05-10T13:41:15.420Z,1.20
2023-05-10T13:43:42.771Z,1.30
2023-05-10T13:46:12.538Z,1.60
2023-05-10T13:48:43.203Z,1.05
2023-05-10T13:51:10.718Z,1.25
2023-05-10T13:53:38.456Z,1.00
2023-05-10T13:56:05.908Z,1.00
2023-05-10T13:58:35.886Z,1.23
2023-05-10T14:01:07.198Z,1.20
2023-05-10T14:03:34.654Z,1.08
2023-05-10T14:06:02.116Z,1.10
2023-05-10T14:08:32.463Z,1.10
2023-05-10T14:11:03.223Z,1.20
2023-05-10T14:13:33.175Z,1.13
2023-05-10T14:16:01.855Z,1.10
2023-05-10T14:18:29.591Z,1.20
2023-05-10T14:20:57.314Z,1.00
2023-05-10T14:23:31.458Z,1.00
2023-05-10T14:25:59.078Z,0.90
2023-05-10T14:28:28.779Z,1.00
2023-05-10T14:30:56.411Z,0.93
2023-05-10T14:33:29.367Z,1.00
2023-05-10T14:35:57.984Z,0.93
2023-05-10T14:38:25.216Z,0.82
2023-05-10T14:40:52.441Z,0.82
2023-05-10T14:43:20.162Z,1.10
2023-05-10T14:45:47.804Z,0.82
2023-05-10T14:48:18.504Z,0.90
2023-05-10T14:50:47.115Z,1.10
2023-05-10T14:53:14.500Z,0.95
2023-05-10T14:55:42.108Z,0.90
2023-05-10T14:58:09.376Z,0.90
2023-05-10T15:00:36.569Z,0.90
2023-05-10T15:03:05.008Z,0.90
2023-05-10T15:05:32.957Z,0.82
2023-05-10T15:08:01.107Z,0.85
2023-05-10T15:10:28.364Z,1.00
2023-05-10T15:12:55.982Z,0.82
2023-05-10T15:15:23.294Z,0.90
2023-05-10T15:17:50.928Z,1.00
2023-05-10T15:20:20.966Z,0.80
2023-05-10T15:22:48.199Z,0.90
2023-05-10T15:25:16.958Z,0.80
2023-05-10T15:27:47.315Z,0.90
2023-05-10T15:30:15.152Z,0.82
2023-05-10T15:32:44.007Z,0.88
2023-05-10T15:35:11.809Z,0.80
2023-05-10T15:37:39.490Z,0.82
2023-05-10T15:40:10.718Z,0.95
2023-05-10T15:42:39.081Z,0.80
2023-05-10T15:45:07.361Z,0.80
2023-05-10T15:47:34.571Z,0.82
2023-05-10T15:50:01.854Z,0.90
2023-05-10T15:52:29.260Z,0.80
2023-05-10T15:54:56.654Z,0.65
2023-05-10T15:57:24.096Z,1.00
2023-05-10T15:59:51.558Z,1.00
2023-05-10T16:02:19.644Z,1.02
2023-05-10T16:04:46.933Z,0.98
2023-05-10T16:07:14.558Z,0.90
2023-05-10T16:09:41.926Z,0.90
2023-05-10T16:12:09.259Z,1.02
2023-05-10T16:14:36.966Z,0.60
2023-05-10T16:17:04.779Z,0.75
2023-05-10T16:19:32.900Z,1.17
2023-05-10T16:22:01.377Z,0.95
2023-05-10T16:24:29.236Z,0.80
2023-05-10T16:26:56.533Z,0.95
2023-05-10T16:29:23.787Z,0.90
2023-05-10T16:31:51.046Z,0.80
2023-05-10T16:34:20.652Z,0.90
2023-05-10T16:36:48.289Z,0.88
2023-05-10T16:39:16.969Z,1.00
2023-05-10T16:41:44.350Z,0.90
2023-05-10T16:44:11.455Z,0.70
2023-05-10T16:46:39.059Z,0.80
2023-05-10T16:49:10.075Z,0.80
2023-05-10T16:51:37.291Z,0.95
2023-05-10T16:54:04.601Z,0.75
2023-05-10T16:56:32.164Z,0.88
2023-05-10T16:58:59.220Z,0.80
2023-05-10T17:01:27.173Z,0.80
2023-05-10T17:03:54.869Z,0.90
2023-05-10T17:06:24.240Z,0.90
2023-05-10T17:08:51.926Z,0.68
2023-05-10T17:11:21.332Z,0.70
2023-05-10T17:13:48.981Z,0.80
2023-05-10T17:16:16.145Z,0.80
2023-05-10T17:18:43.437Z,0.88
2023-05-10T17:21:10.943Z,0.68
2023-05-10T17:23:41.046Z,0.80
2023-05-10T17:26:09.370Z,0.82
2023-05-10T17:28:36.725Z,0.70
2023-05-10T17:31:04.309Z,0.60
2023-05-10T17:33:31.561Z,0.80
2023-05-10T17:35:59.142Z,0.80
2023-05-10T17:38:26.440Z,0.70
2023-05-10T17:40:53.645Z,0.70
2023-05-10T17:43:21.496Z,0.90
2023-05-10T17:45:50.539Z,0.80
2023-05-10T17:48:17.979Z,0.90
2023-05-10T17:50:47.422Z,0.80
2023-05-10T17:53:14.691Z,0.80
2023-05-10T17:55:43.910Z,0.80
2023-05-10T17:58:12.859Z,0.65
2023-05-10T18:00:40.461Z,0.75
2023-05-10T18:03:11.436Z,0.90
2023-05-10T18:05:40.014Z,0.80
2023-05-10T18:08:08.669Z,0.80
2023-05-10T18:10:39.966Z,0.82
2023-05-10T18:13:13.065Z,0.80
2023-05-10T18:15:41.396Z,0.70
2023-05-10T18:18:09.389Z,0.88
2023-05-10T18:20:37.378Z,1.00
2023-05-10T18:23:04.372Z,0.80
2023-05-10T18:25:32.340Z,0.70
2023-05-10T18:28:00.051Z,0.90
2023-05-10T18:30:27.485Z,0.93
2023-05-10T18:32:58.226Z,0.82
2023-05-10T18:35:28.879Z,0.80
2023-05-10T18:37:56.388Z,0.80
2023-05-10T18:40:24.231Z,0.88
2023-05-10T18:42:51.653Z,0.80
2023-05-10T18:45:19.537Z,0.90
2023-05-10T18:47:47.507Z,0.82
2023-05-10T18:50:17.042Z,0.70
2023-05-10T18:52:44.241Z,0.70
2023-05-10T18:55:11.740Z,1.08
2023-05-10T18:57:41.721Z,0.98
2023-05-10T19:00:12.585Z,0.80
2023-05-10T19:02:41.326Z,0.70
2023-05-10T19:05:11.956Z,1.00
2023-05-10T19:07:40.730Z,0.70
2023-05-10T19:10:08.521Z,0.70
2023-05-10T19:12:35.963Z,0.90
2023-05-10T19:15:03.596Z,0.80
2023-05-10T19:17:31.921Z,0.80
2023-05-10T19:19:59.894Z,0.90
2023-05-10T19:22:44.997Z,0.82
2023-05-10T19:25:14.276Z,0.88
2023-05-10T19:27:41.341Z,0.90
2023-05-10T19:30:09.277Z,1.00
2023-05-10T19:32:36.906Z,0.73
2023-05-10T19:35:04.759Z,0.80
2023-05-10T19:37:32.035Z,0.70
2023-05-10T19:39:59.573Z,0.82
2023-05-10T19:42:26.893Z,0.70
2023-05-10T19:44:53.948Z,0.80
2023-05-10T19:47:21.519Z,1.00
2023-05-10T19:49:48.651Z,0.70
2023-05-10T19:52:16.169Z,0.60
2023-05-10T19:54:45.126Z,0.77
2023-05-10T19:57:14.023Z,0.60
2023-05-10T19:59:41.117Z,0.65
2023-05-10T20:02:09.922Z,0.55
2023-05-10T20:04:37.039Z,0.80
2023-05-10T20:07:04.689Z,0.65
2023-05-10T20:09:32.103Z,0.80
2023-05-10T20:12:00.652Z,0.70
2023-05-10T20:14:27.904Z,0.80
2023-05-10T20:16:55.194Z,0.80
2023-05-10T20:19:22.756Z,0.82
2023-05-10T20:21:49.960Z,0.80
2023-05-10T20:24:17.203Z,0.60
2023-05-10T20:26:47.369Z,0.68
2023-05-10T20:29:14.491Z,0.60
2023-05-10T20:31:45.327Z,0.70
2023-05-10T20:34:15.507Z,0.75
2023-05-10T20:36:42.848Z,0.60
2023-05-10T20:39:09.804Z,0.70
2023-05-10T20:41:39.596Z,0.70
2023-05-10T20:44:06.986Z,0.60
2023-05-10T20:46:35.040Z,0.90
2023-05-10T20:49:02.773Z,0.60
2023-05-10T20:51:30.614Z,0.60
2023-05-10T20:53:58.000Z,0.57
2023-05-10T20:56:25.081Z,0.70
2023-05-10T20:58:52.315Z,0.75
2023-05-10T21:01:19.430Z,0.70
2023-05-10T21:03:46.432Z,0.68
2023-05-10T21:06:13.984Z,0.82
2023-05-10T21:08:41.153Z,0.70
2023-05-10T21:11:08.401Z,0.60
2023-05-10T21:13:35.390Z,0.70
2023-05-10T21:16:04.939Z,0.63
2023-05-10T21:18:32.077Z,0.60
2023-05-10T21:20:59.839Z,0.75
2023-05-10T21:23:27.017Z,0.65
2023-05-10T21:25:54.171Z,0.52
2023-05-10T21:28:21.757Z,0.70
2023-05-10T21:30:48.718Z,0.68
2023-05-10T21:33:16.022Z,0.63
2023-05-10T21:35:43.148Z,0.70
2023-05-10T21:38:10.432Z,0.70
2023-05-10T21:40:39.458Z,0.70
2023-05-10T21:43:07.536Z,0.60
2023-05-10T21:45:39.577Z,0.65
2023-05-10T21:48:06.866Z,0.40
2023-05-10T21:50:34.295Z,0.60
2023-05-10T21:53:01.903Z,0.65
2023-05-10T21:55:28.779Z,0.60
2023-05-10T21:57:56.293Z,0.80
2023-05-10T22:00:23.664Z,0.60
2023-05-10T22:02:51.058Z,0.60
2023-05-10T22:05:21.206Z,0.60
2023-05-10T22:07:48.396Z,0.50
2023-05-10T22:10:15.668Z,0.70
2023-05-10T22:12:42.906Z,0.60
2023-05-10T22:15:13.859Z,0.60
2023-05-10T22:17:41.646Z,0.70
2023-05-10T22:20:09.750Z,0.60
2023-05-10T22:22:37.135Z,0.70
2023-05-10T22:25:07.831Z,0.60
2023-05-10T22:27:35.559Z,0.50
2023-05-10T22:30:03.913Z,0.60
2023-05-10T22:32:32.978Z,0.60
2023-05-10T22:35:03.327Z,0.60
2023-05-10T22:37:34.276Z,0.60
2023-05-10T22:40:01.297Z,0.60
2023-05-10T22:42:28.464Z,0.50
2023-05-10T22:44:55.541Z,0.60
2023-05-10T22:47:23.504Z,0.60
2023-05-10T22:49:50.686Z,0.60
2023-05-10T22:52:17.760Z,0.68
2023-05-10T22:54:45.159Z,0.50
2023-05-10T22:57:12.614Z,0.60
2023-05-10T22:59:42.499Z,0.63
2023-05-10T23:02:14.396Z,0.70
2023-05-10T23:04:41.740Z,0.45
2023-05-10T23:07:09.194Z,0.70
2023-05-10T23:09:36.572Z,0.60
2023-05-10T23:12:04.084Z,0.63
2023-05-10T23:14:31.161Z,0.55
2023-05-10T23:16:58.306Z,0.60
2023-05-10T23:19:25.516Z,0.70
2023-05-10T23:21:52.943Z,0.70
2023-05-10T23:24:20.362Z,0.70
2023-05-10T23:26:47.540Z,0.60
2023-05-10T23:29:14.857Z,0.60
2023-05-10T23:31:45.765Z,0.60
2023-05-10T23:34:13.278Z,0.75
2023-05-10T23:36:40.310Z,0.60
2023-05-10T23:39:08.291Z,0.70
2023-05-10T23:41:35.633Z,0.60
2023-05-10T23:44:02.878Z,0.80
2023-05-10T23:46:29.949Z,0.68
2023-05-10T23:48:57.000Z,0.63
2023-05-10T23:51:24.224Z,0.60
2023-05-10T23:53:51.311Z,0.60
2023-05-10T23:56:20.758Z,0.70
2023-05-10T23:58:48.382Z,0.70
